createdAt,value
2017-01-17T00:00:09.019Z,1026.36
2017-01-17T00:01:08.987Z,1026.34
2017-01-17T00:02:08.957Z,1026.39
2017-01-17T00:03:08.928Z,1026.34
2017-01-17T00:04:08.901Z,1026.36
2017-01-17T00:05:08.872Z,1026.32
2017-01-17T00:06:08.845Z,1026.32
2017-01-17T00:07:08.824Z,1026.3
2017-01-17T00:08:08.789Z,1026.31
2017-01-17T00:09:08.764Z,1026.34
2017-01-17T00:10:08.732Z,1026.33
2017-01-17T00:11:08.707Z,1026.35
2017-01-17T00:12:08.675Z,1026.33
2017-01-17T00:13:08.651Z,1026.27
2017-01-17T00:14:08.622Z,1026.33
2017-01-17T00:15:08.593Z,1026.36
2017-01-17T00:16:08.568Z,1026.36
2017-01-17T00:17:08.539Z,1026.36
2017-01-17T00:18:08.523Z,1026.4
2017-01-17T00:19:08.478Z,1026.39
2017-01-17T00:20:08.455Z,1026.4
2017-01-17T00:21:08.425Z,1026.42
2017-01-17T00:22:08.395Z,1026.39
2017-01-17T00:23:08.367Z,1026.42
2017-01-17T00:24:08.343Z,1026.37
2017-01-17T00:25:08.314Z,1026.44
2017-01-17T00:26:08.282Z,1026.41
2017-01-17T00:27:08.257Z,1026.38
2017-01-17T00:28:08.227Z,1026.39
2017-01-17T00:29:08.201Z,1026.41
2017-01-17T00:30:08.169Z,1026.45
2017-01-17T00:31:08.149Z,1026.46
2017-01-17T00:32:08.222Z,1026.45
2017-01-17T00:33:08.086Z,1026.41
2017-01-17T00:34:08.064Z,1026.45
2017-01-17T00:35:08.029Z,1026.44
2017-01-17T00:36:08.045Z,1026.44
2017-01-17T00:37:07.977Z,1026.44
2017-01-17T00:38:07.973Z,1026.44
2017-01-17T00:39:07.915Z,1026.41
2017-01-17T00:40:07.897Z,1026.42
2017-01-17T00:41:07.859Z,1026.43
2017-01-17T00:42:07.834Z,1026.44
2017-01-17T00:43:07.803Z,1026.43
2017-01-17T00:44:07.779Z,1026.5
2017-01-17T00:45:07.749Z,1026.48
2017-01-17T00:46:07.721Z,1026.54
2017-01-17T00:47:07.692Z,1026.53
2017-01-17T00:48:07.660Z,1026.56
2017-01-17T00:49:07.631Z,1026.56
2017-01-17T00:50:07.605Z,1026.56
2017-01-17T00:51:07.577Z,1026.56
2017-01-17T00:52:07.546Z,1026.58
2017-01-17T00:53:07.525Z,1026.62
2017-01-17T00:54:07.490Z,1026.64
2017-01-17T00:55:07.464Z,1026.69
2017-01-17T00:56:07.433Z,1026.68
2017-01-17T00:57:07.414Z,1026.7
2017-01-17T00:58:07.383Z,1026.75
2017-01-17T00:59:07.352Z,1026.76
2017-01-17T01:00:07.322Z,1026.81
2017-01-17T01:01:07.294Z,1026.82
2017-01-17T01:02:07.270Z,1026.82
2017-01-17T01:03:07.240Z,1026.81
2017-01-17T01:04:07.209Z,1026.85
2017-01-17T01:05:07.178Z,1026.83
2017-01-17T01:06:07.150Z,1026.83
2017-01-17T01:07:07.127Z,1026.8
2017-01-17T01:08:07.097Z,1026.79
2017-01-17T01:09:07.063Z,1026.81
2017-01-17T01:10:07.035Z,1026.82
2017-01-17T01:11:07.009Z,1026.84
2017-01-17T01:12:06.986Z,1026.87
2017-01-17T01:13:06.964Z,1026.85
2017-01-17T01:14:06.923Z,1026.88
2017-01-17T01:15:06.901Z,1026.89
2017-01-17T01:16:06.868Z,1026.87
2017-01-17T01:17:06.843Z,1026.93
2017-01-17T01:18:06.811Z,1026.88
2017-01-17T01:19:06.779Z,1026.88
2017-01-17T01:20:06.755Z,1026.9
2017-01-17T01:21:06.727Z,1026.93
2017-01-17T01:22:06.698Z,1026.89
2017-01-17T01:23:06.667Z,1026.89
2017-01-17T01:24:06.645Z,1026.9
2017-01-17T01:25:06.613Z,1026.89
2017-01-17T01:26:06.585Z,1026.91
2017-01-17T01:27:06.575Z,1026.89
2017-01-17T01:28:06.529Z,1026.92
2017-01-17T01:29:06.502Z,1026.84
2017-01-17T01:30:06.470Z,1026.87
2017-01-17T01:31:06.443Z,1026.89
2017-01-17T01:32:06.414Z,1026.89
2017-01-17T01:33:06.392Z,1026.9
2017-01-17T01:34:06.359Z,1026.9
2017-01-17T01:35:06.330Z,1026.91
2017-01-17T01:36:06.300Z,1026.93
2017-01-17T01:37:06.279Z,1026.9
2017-01-17T01:38:06.245Z,1026.91
2017-01-17T01:39:06.216Z,1026.95
2017-01-17T01:40:06.188Z,1026.95
2017-01-17T01:41:06.160Z,1026.93
2017-01-17T01:42:06.137Z,1026.91
2017-01-17T01:43:06.106Z,1026.96
2017-01-17T01:44:06.072Z,1026.99
2017-01-17T01:45:06.047Z,1027
2017-01-17T01:46:06.018Z,1027.08
2017-01-17T01:47:05.995Z,1027.03
2017-01-17T01:48:05.962Z,1027.1
2017-01-17T01:49:05.936Z,1027.16
2017-01-17T01:50:05.910Z,1027.15
2017-01-17T01:51:05.876Z,1027.21
2017-01-17T01:52:05.851Z,1027.21
2017-01-17T01:53:05.819Z,1027.21
2017-01-17T01:54:05.789Z,1027.21
2017-01-17T01:55:05.763Z,1027.27
2017-01-17T01:56:05.734Z,1027.28
2017-01-17T01:57:05.707Z,1027.26
2017-01-17T01:58:05.678Z,1027.26
2017-01-17T01:59:05.657Z,1027.27
2017-01-17T02:00:05.625Z,1027.28
2017-01-17T02:01:05.595Z,1027.29
2017-01-17T02:02:05.565Z,1027.27
2017-01-17T02:03:05.540Z,1027.31
2017-01-17T02:04:05.508Z,1027.3
2017-01-17T02:05:05.485Z,1027.33
2017-01-17T02:06:05.451Z,1027.31
2017-01-17T02:07:05.422Z,1027.33
2017-01-17T02:08:05.398Z,1027.3
2017-01-17T02:09:05.371Z,1027.3
2017-01-17T02:10:05.341Z,1027.28
2017-01-17T02:11:05.310Z,1027.35
2017-01-17T02:12:05.283Z,1027.31
2017-01-17T02:13:05.259Z,1027.31
2017-01-17T02:14:05.228Z,1027.31
2017-01-17T02:15:05.201Z,1027.33
2017-01-17T02:16:05.171Z,1027.32
2017-01-17T02:17:05.148Z,1027.33
2017-01-17T02:18:05.116Z,1027.34
2017-01-17T02:19:05.084Z,1027.38
2017-01-17T02:20:05.054Z,1027.4
2017-01-17T02:21:05.024Z,1027.4
2017-01-17T02:22:05.003Z,1027.42
2017-01-17T02:23:04.977Z,1027.42
2017-01-17T02:24:04.942Z,1027.47
2017-01-17T02:25:04.912Z,1027.47
2017-01-17T02:26:04.887Z,1027.43
2017-01-17T02:27:04.857Z,1027.43
2017-01-17T02:28:04.828Z,1027.41
2017-01-17T02:29:04.803Z,1027.45
2017-01-17T02:30:04.775Z,1027.44
2017-01-17T02:31:04.743Z,1027.41
2017-01-17T02:32:04.714Z,1027.43
2017-01-17T02:33:04.688Z,1027.44
2017-01-17T02:34:04.667Z,1027.44
2017-01-17T02:35:04.630Z,1027.43
2017-01-17T02:36:04.606Z,1027.45
2017-01-17T02:37:04.578Z,1027.48
2017-01-17T02:38:04.545Z,1027.46
2017-01-17T02:39:04.519Z,1027.47
2017-01-17T02:40:04.488Z,1027.52
2017-01-17T02:41:04.462Z,1027.48
2017-01-17T02:42:04.431Z,1027.48
2017-01-17T02:43:04.405Z,1027.46
2017-01-17T02:44:04.382Z,1027.5
2017-01-17T02:45:04.350Z,1027.44
2017-01-17T02:46:04.316Z,1027.48
2017-01-17T02:47:04.291Z,1027.47
2017-01-17T02:48:04.262Z,1027.49
2017-01-17T02:49:04.236Z,1027.5
2017-01-17T02:50:04.235Z,1027.47
2017-01-17T02:51:04.177Z,1027.49
2017-01-17T02:52:04.157Z,1027.55
2017-01-17T02:53:04.126Z,1027.52
2017-01-17T02:54:04.096Z,1027.53
2017-01-17T02:55:04.065Z,1027.54
2017-01-17T02:56:04.045Z,1027.54
2017-01-17T02:57:04.011Z,1027.58
2017-01-17T02:58:03.981Z,1027.59
2017-01-17T02:59:03.954Z,1027.6
2017-01-17T03:00:03.923Z,1027.63
2017-01-17T03:01:03.902Z,1027.64
2017-01-17T03:02:03.872Z,1027.62
2017-01-17T03:03:03.841Z,1027.6
2017-01-17T03:04:03.810Z,1027.61
2017-01-17T03:05:03.780Z,1027.6
2017-01-17T03:06:03.758Z,1027.59
2017-01-17T03:07:03.728Z,1027.61
2017-01-17T03:08:03.697Z,1027.58
2017-01-17T03:09:03.669Z,1027.61
2017-01-17T03:10:03.637Z,1027.65
2017-01-17T03:11:03.615Z,1027.64
2017-01-17T03:12:03.587Z,1027.63
2017-01-17T03:13:03.562Z,1027.64
2017-01-17T03:14:03.527Z,1027.69
2017-01-17T03:15:03.508Z,1027.68
2017-01-17T03:16:03.477Z,1027.69
2017-01-17T03:17:03.443Z,1027.68
2017-01-17T03:18:03.413Z,1027.66
2017-01-17T03:19:03.396Z,1027.67
2017-01-17T03:20:03.360Z,1027.71
2017-01-17T03:21:03.331Z,1027.66
2017-01-17T03:22:03.298Z,1027.66
2017-01-17T03:23:03.271Z,1027.69
2017-01-17T03:24:03.248Z,1027.68
2017-01-17T03:25:03.219Z,1027.68
2017-01-17T03:26:03.184Z,1027.68
2017-01-17T03:27:03.157Z,1027.73
2017-01-17T03:28:03.129Z,1027.71
2017-01-17T03:29:03.108Z,1027.7
2017-01-17T03:30:03.071Z,1027.71
2017-01-17T03:31:03.047Z,1027.71
2017-01-17T03:32:03.016Z,1027.69
2017-01-17T03:33:02.986Z,1027.68
2017-01-17T03:34:02.964Z,1027.66
2017-01-17T03:35:02.935Z,1027.69
2017-01-17T03:36:02.900Z,1027.65
2017-01-17T03:37:02.873Z,1027.7
2017-01-17T03:38:02.842Z,1027.71
2017-01-17T03:39:02.813Z,1027.7
2017-01-17T03:40:02.792Z,1027.66
2017-01-17T03:41:02.763Z,1027.64
2017-01-17T03:42:02.729Z,1027.61
2017-01-17T03:43:02.700Z,1027.57
2017-01-17T03:44:02.670Z,1027.57
2017-01-17T03:45:02.651Z,1027.54
2017-01-17T03:46:02.619Z,1027.56
2017-01-17T03:47:02.585Z,1027.5
2017-01-17T03:48:02.556Z,1027.51
2017-01-17T03:49:02.527Z,1027.48
2017-01-17T03:50:02.507Z,1027.5
2017-01-17T03:51:02.476Z,1027.5
2017-01-17T03:52:02.444Z,1027.5
2017-01-17T03:53:02.414Z,1027.51
2017-01-17T03:54:02.384Z,1027.49
2017-01-17T03:55:02.361Z,1027.48
2017-01-17T03:56:02.334Z,1027.5
2017-01-17T03:57:02.304Z,1027.46
2017-01-17T03:58:02.320Z,1027.46
2017-01-17T03:59:02.240Z,1027.46
2017-01-17T04:00:02.222Z,1027.48
2017-01-17T04:01:02.184Z,1027.49
2017-01-17T04:02:02.212Z,1027.48
2017-01-17T04:03:02.131Z,1027.5
2017-01-17T04:04:02.117Z,1027.49
2017-01-17T04:05:02.080Z,1027.45
2017-01-17T04:06:02.047Z,1027.47
2017-01-17T04:07:02.012Z,1027.46
2017-01-17T04:08:02.138Z,1027.48
2017-01-17T04:09:01.955Z,1027.47
2017-01-17T04:10:01.927Z,1027.48
2017-01-17T04:11:01.900Z,1027.46
2017-01-17T04:12:01.884Z,1027.46
2017-01-17T04:13:01.843Z,1027.46
2017-01-17T04:14:01.823Z,1027.44
2017-01-17T04:15:01.783Z,1027.45
2017-01-17T04:16:01.754Z,1027.39
2017-01-17T04:17:01.725Z,1027.38
2017-01-17T04:18:01.693Z,1027.39
2017-01-17T04:19:01.669Z,1027.37
2017-01-17T04:20:01.642Z,1027.33
2017-01-17T04:21:01.609Z,1027.34
2017-01-17T04:22:01.581Z,1027.37
2017-01-17T04:23:01.551Z,1027.36
2017-01-17T04:24:01.524Z,1027.33
2017-01-17T04:25:01.495Z,1027.34
2017-01-17T04:26:01.464Z,1027.33
2017-01-17T04:27:01.437Z,1027.34
2017-01-17T04:28:01.409Z,1027.35
2017-01-17T04:29:01.385Z,1027.35
2017-01-17T04:30:01.350Z,1027.32
2017-01-17T04:31:01.321Z,1027.3
2017-01-17T04:32:01.296Z,1027.35
2017-01-17T04:33:01.265Z,1027.34
2017-01-17T04:34:01.242Z,1027.37
2017-01-17T04:35:01.206Z,1027.38
2017-01-17T04:36:01.179Z,1027.4
2017-01-17T04:37:01.153Z,1027.37
2017-01-17T04:38:01.122Z,1027.39
2017-01-17T04:39:01.092Z,1027.4
2017-01-17T04:40:01.068Z,1027.39
2017-01-17T04:41:01.034Z,1027.43
2017-01-17T04:42:01.004Z,1027.45
2017-01-17T04:43:00.979Z,1027.47
2017-01-17T04:44:00.950Z,1027.48
2017-01-17T04:45:00.918Z,1027.5
2017-01-17T04:46:00.889Z,1027.51
2017-01-17T04:47:00.864Z,1027.53
2017-01-17T04:48:00.831Z,1027.51
2017-01-17T04:49:00.806Z,1027.52
2017-01-17T04:50:00.776Z,1027.52
2017-01-17T04:51:00.745Z,1027.53
2017-01-17T04:52:00.716Z,1027.56
2017-01-17T04:53:00.695Z,1027.57
2017-01-17T04:54:00.663Z,1027.59
2017-01-17T04:55:00.680Z,1027.54
2017-01-17T04:56:00.604Z,1027.58
2017-01-17T04:57:00.672Z,1027.62
2017-01-17T04:58:00.542Z,1027.59
2017-01-17T04:59:00.553Z,1027.62
2017-01-17T05:00:00.485Z,1027.65
2017-01-17T05:01:00.459Z,1027.64
2017-01-17T05:02:00.428Z,1027.68
2017-01-17T05:03:00.395Z,1027.65
2017-01-17T05:04:00.370Z,1027.66
2017-01-17T05:05:00.347Z,1027.65
2017-01-17T05:06:00.318Z,1027.65
2017-01-17T05:07:00.289Z,1027.63
2017-01-17T05:08:00.256Z,1027.72
2017-01-17T05:09:00.223Z,1027.7
2017-01-17T05:10:00.196Z,1027.71
2017-01-17T05:11:00.165Z,1027.77
2017-01-17T05:12:00.135Z,1027.81
2017-01-17T05:13:00.107Z,1027.85
2017-01-17T05:14:00.078Z,1027.9
2017-01-17T05:15:00.050Z,1027.9
2017-01-17T05:16:00.026Z,1027.92
2017-01-17T05:16:59.992Z,1027.96
2017-01-17T05:17:59.972Z,1027.96
2017-01-17T05:18:59.938Z,1027.98
2017-01-17T05:19:59.908Z,1028.02
2017-01-17T05:20:59.880Z,1028
2017-01-17T05:21:59.850Z,1028.02
2017-01-17T05:22:59.821Z,1028.05
2017-01-17T05:23:59.788Z,1028.06
2017-01-17T05:24:59.757Z,1028.09
2017-01-17T05:25:59.728Z,1028.08
2017-01-17T05:26:59.707Z,1028.11
2017-01-17T05:27:59.672Z,1028.12
2017-01-17T05:28:59.646Z,1028.13
2017-01-17T05:29:59.615Z,1028.12
2017-01-17T05:30:59.583Z,1028.13
2017-01-17T05:31:59.554Z,1028.15
2017-01-17T05:32:59.526Z,1028.19
2017-01-17T05:33:59.501Z,1028.18
2017-01-17T05:34:59.467Z,1028.23
2017-01-17T05:35:59.442Z,1028.28
2017-01-17T05:36:59.412Z,1028.27
2017-01-17T05:37:59.381Z,1028.3
2017-01-17T05:38:59.363Z,1028.34
2017-01-17T05:39:59.322Z,1028.34
2017-01-17T05:40:59.302Z,1028.4
2017-01-17T05:41:59.265Z,1028.41
2017-01-17T05:42:59.239Z,1028.39
2017-01-17T05:43:59.210Z,1028.37
2017-01-17T05:44:59.177Z,1028.39
2017-01-17T05:45:59.146Z,1028.41
2017-01-17T05:46:59.120Z,1028.38
2017-01-17T05:47:59.096Z,1028.39
2017-01-17T05:48:59.064Z,1028.4
2017-01-17T05:49:59.030Z,1028.42
2017-01-17T05:50:59.001Z,1028.42
2017-01-17T05:51:58.971Z,1028.44
2017-01-17T05:52:58.942Z,1028.43
2017-01-17T05:53:58.921Z,1028.45
2017-01-17T05:54:58.881Z,1028.42
2017-01-17T05:55:58.861Z,1028.46
2017-01-17T05:56:58.830Z,1028.48
2017-01-17T05:57:58.801Z,1028.5
2017-01-17T05:58:58.769Z,1028.48
2017-01-17T05:59:58.739Z,1028.49
2017-01-17T06:00:58.709Z,1028.44
2017-01-17T06:01:58.679Z,1028.45
2017-01-17T06:02:58.656Z,1028.44
2017-01-17T06:03:58.621Z,1028.48
2017-01-17T06:04:58.595Z,1028.51
2017-01-17T06:05:58.564Z,1028.49
2017-01-17T06:06:58.535Z,1028.49
2017-01-17T06:07:58.510Z,1028.46
2017-01-17T06:08:58.483Z,1028.49
2017-01-17T06:09:58.453Z,1028.49
2017-01-17T06:10:58.422Z,1028.51
2017-01-17T06:11:58.390Z,1028.54
2017-01-17T06:12:58.362Z,1028.55
2017-01-17T06:13:58.331Z,1028.55
2017-01-17T06:14:58.300Z,1028.55
2017-01-17T06:15:58.272Z,1028.53
2017-01-17T06:16:58.244Z,1028.55
2017-01-17T06:17:58.219Z,1028.59
2017-01-17T06:18:58.189Z,1028.59
2017-01-17T06:19:58.157Z,1028.64
2017-01-17T06:20:58.137Z,1028.65
2017-01-17T06:21:58.106Z,1028.65
2017-01-17T06:22:58.072Z,1028.69
2017-01-17T06:23:58.042Z,1028.68
2017-01-17T06:24:58.018Z,1028.7
2017-01-17T06:25:57.984Z,1028.7
2017-01-17T06:26:57.954Z,1028.67
2017-01-17T06:27:57.931Z,1028.69
2017-01-17T06:28:57.896Z,1028.71
2017-01-17T06:29:57.873Z,1028.68
2017-01-17T06:30:57.837Z,1028.7
2017-01-17T06:31:57.812Z,1028.74
2017-01-17T06:32:57.781Z,1028.76
2017-01-17T06:33:57.751Z,1028.74
2017-01-17T06:34:57.730Z,1028.77
2017-01-17T06:35:57.690Z,1028.77
2017-01-17T06:36:57.661Z,1028.83
2017-01-17T06:37:57.637Z,1028.79
2017-01-17T06:38:57.608Z,1028.82
2017-01-17T06:39:57.578Z,1028.83
2017-01-17T06:40:57.546Z,1028.87
2017-01-17T06:41:57.525Z,1028.88
2017-01-17T06:42:57.496Z,1028.91
2017-01-17T06:43:57.466Z,1028.94
2017-01-17T06:44:57.430Z,1028.96
2017-01-17T06:45:57.405Z,1028.92
2017-01-17T06:46:57.373Z,1028.92
2017-01-17T06:47:57.343Z,1028.96
2017-01-17T06:48:57.320Z,1028.99
2017-01-17T06:49:57.287Z,1028.98
2017-01-17T06:50:57.257Z,1028.96
2017-01-17T06:51:57.231Z,1028.95
2017-01-17T06:52:57.203Z,1028.96
2017-01-17T06:53:57.180Z,1028.99
2017-01-17T06:54:57.141Z,1029
2017-01-17T06:55:57.119Z,1029.03
2017-01-17T06:56:57.087Z,1029.06
2017-01-17T06:57:57.059Z,1029.08
2017-01-17T06:58:57.031Z,1029.13
2017-01-17T06:59:56.998Z,1029.14
2017-01-17T07:00:56.971Z,1029.15
2017-01-17T07:01:56.940Z,1029.17
2017-01-17T07:02:56.916Z,1029.18
2017-01-17T07:03:56.885Z,1029.2
2017-01-17T07:04:56.853Z,1029.2
2017-01-17T07:05:56.823Z,1029.22
2017-01-17T07:06:56.798Z,1029.22
2017-01-17T07:07:56.766Z,1029.23
2017-01-17T07:08:56.740Z,1029.24
2017-01-17T07:09:56.708Z,1029.25
2017-01-17T07:10:56.679Z,1029.23
2017-01-17T07:11:56.651Z,1029.3
2017-01-17T07:12:56.621Z,1029.37
2017-01-17T07:13:56.599Z,1029.4
2017-01-17T07:14:56.568Z,1029.43
2017-01-17T07:15:56.537Z,1029.48
2017-01-17T07:16:56.510Z,1029.49
2017-01-17T07:17:56.531Z,1029.54
2017-01-17T07:18:56.449Z,1029.53
2017-01-17T07:19:56.425Z,1029.47
2017-01-17T07:20:56.391Z,1029.5
2017-01-17T07:21:56.365Z,1029.47
2017-01-17T07:22:56.333Z,1029.48
2017-01-17T07:23:56.403Z,1029.48
2017-01-17T07:24:56.274Z,1029.48
2017-01-17T07:25:56.255Z,1029.39
2017-01-17T07:26:56.218Z,1029.43
2017-01-17T07:27:56.242Z,1029.41
2017-01-17T07:28:56.164Z,1029.44
2017-01-17T07:29:56.134Z,1029.45
2017-01-17T07:30:56.100Z,1029.47
2017-01-17T07:31:56.077Z,1029.43
2017-01-17T07:32:56.045Z,1029.46
2017-01-17T07:33:56.020Z,1029.47
2017-01-17T07:34:55.989Z,1029.5
2017-01-17T07:35:56.018Z,1029.51
2017-01-17T07:36:55.926Z,1029.52
2017-01-17T07:37:55.899Z,1029.54
2017-01-17T07:38:55.867Z,1029.56
2017-01-17T07:39:55.841Z,1029.54
2017-01-17T07:40:55.816Z,1029.55
2017-01-17T07:41:55.785Z,1029.56
2017-01-17T07:42:55.754Z,1029.59
2017-01-17T07:43:55.724Z,1029.58
2017-01-17T07:44:55.694Z,1029.6
2017-01-17T07:45:55.666Z,1029.59
2017-01-17T07:46:55.637Z,1029.61
2017-01-17T07:47:55.610Z,1029.62
2017-01-17T07:48:55.576Z,1029.65
2017-01-17T07:49:55.548Z,1029.7
2017-01-17T07:50:55.519Z,1029.64
2017-01-17T07:51:55.490Z,1029.69
2017-01-17T07:52:55.458Z,1029.73
2017-01-17T07:53:55.442Z,1029.69
2017-01-17T07:54:55.407Z,1029.68
2017-01-17T07:55:55.372Z,1029.74
2017-01-17T07:56:55.347Z,1029.69
2017-01-17T07:57:55.315Z,1029.69
2017-01-17T07:58:55.290Z,1029.68
2017-01-17T07:59:55.258Z,1029.67
2017-01-17T08:00:55.233Z,1029.62
2017-01-17T08:01:55.205Z,1029.62
2017-01-17T08:02:55.173Z,1029.66
2017-01-17T08:03:55.140Z,1029.63
2017-01-17T08:04:55.112Z,1029.69
2017-01-17T08:05:55.091Z,1029.63
2017-01-17T08:06:55.058Z,1029.68
2017-01-17T08:07:55.031Z,1029.68
2017-01-17T08:08:55.002Z,1029.66
2017-01-17T08:09:54.970Z,1029.67
2017-01-17T08:10:54.939Z,1029.71
2017-01-17T08:11:54.967Z,1029.64
2017-01-17T08:12:55.031Z,1029.66
2017-01-17T08:13:54.939Z,1029.69
2017-01-17T08:14:54.902Z,1029.69
2017-01-17T08:15:54.893Z,1029.73
2017-01-17T08:16:54.865Z,1029.75
2017-01-17T08:17:54.830Z,1029.74
2017-01-17T08:18:54.793Z,1029.73
2017-01-17T08:19:54.723Z,1029.74
2017-01-17T08:20:54.680Z,1029.75
2017-01-17T08:21:54.622Z,1029.74
2017-01-17T08:22:54.601Z,1029.71
2017-01-17T08:23:54.571Z,1029.73
2017-01-17T08:24:54.541Z,1029.72
2017-01-17T08:25:54.507Z,1029.74
2017-01-17T08:26:54.480Z,1029.73
2017-01-17T08:27:54.449Z,1029.74
2017-01-17T08:28:54.427Z,1029.73
2017-01-17T08:29:54.395Z,1029.73
2017-01-17T08:30:54.370Z,1029.71
2017-01-17T08:31:54.332Z,1029.74
2017-01-17T08:32:54.304Z,1029.74
2017-01-17T08:33:54.275Z,1029.76
2017-01-17T08:34:54.244Z,1029.71
2017-01-17T08:35:54.220Z,1029.74
2017-01-17T08:36:54.196Z,1029.76
2017-01-17T08:37:54.162Z,1029.79
2017-01-17T08:38:54.134Z,1029.77
2017-01-17T08:39:54.109Z,1029.77
2017-01-17T08:40:54.074Z,1029.77
2017-01-17T08:41:54.046Z,1029.81
2017-01-17T08:42:54.014Z,1029.83
2017-01-17T08:43:53.991Z,1029.86
2017-01-17T08:44:53.959Z,1029.86
2017-01-17T08:45:53.928Z,1029.9
2017-01-17T08:46:53.900Z,1029.93
2017-01-17T08:47:53.877Z,1029.89
2017-01-17T08:48:53.848Z,1029.89
2017-01-17T08:49:53.817Z,1029.92
2017-01-17T08:50:53.786Z,1029.92
2017-01-17T08:51:53.754Z,1029.89
2017-01-17T08:52:53.728Z,1029.95
2017-01-17T08:53:53.697Z,1029.98
2017-01-17T08:54:53.672Z,1030.03
2017-01-17T08:55:53.643Z,1030.05
2017-01-17T08:56:53.612Z,1030.06
2017-01-17T08:57:53.590Z,1030.05
2017-01-17T08:58:53.561Z,1030.1
2017-01-17T08:59:53.530Z,1030.15
2017-01-17T09:00:53.499Z,1030.15
2017-01-17T09:01:53.469Z,1030.16
2017-01-17T09:02:53.443Z,1030.17
2017-01-17T09:03:53.411Z,1030.18
2017-01-17T09:04:53.386Z,1030.17
2017-01-17T09:05:53.357Z,1030.18
2017-01-17T09:06:53.326Z,1030.22
2017-01-17T09:07:53.297Z,1030.22
2017-01-17T09:08:53.272Z,1030.2
2017-01-17T09:09:53.253Z,1030.26
2017-01-17T09:10:53.214Z,1030.26
2017-01-17T09:11:53.183Z,1030.27
2017-01-17T09:12:53.154Z,1030.26
2017-01-17T09:13:53.128Z,1030.28
2017-01-17T09:14:53.098Z,1030.33
2017-01-17T09:15:53.072Z,1030.32
2017-01-17T09:16:53.040Z,1030.32
2017-01-17T09:17:53.009Z,1030.34
2017-01-17T09:18:52.982Z,1030.34
2017-01-17T09:19:52.958Z,1030.34
2017-01-17T09:20:52.927Z,1030.38
2017-01-17T09:21:52.897Z,1030.4
2017-01-17T09:22:52.867Z,1030.4
2017-01-17T09:23:52.841Z,1030.4
2017-01-17T09:24:52.816Z,1030.4
2017-01-17T09:25:52.785Z,1030.4
2017-01-17T09:26:52.755Z,1030.42
2017-01-17T09:27:52.725Z,1030.38
2017-01-17T09:28:52.704Z,1030.42
2017-01-17T09:29:52.673Z,1030.38
2017-01-17T09:30:52.650Z,1030.4
2017-01-17T09:31:52.612Z,1030.43
2017-01-17T09:32:52.582Z,1030.39
2017-01-17T09:33:52.559Z,1030.44
2017-01-17T09:34:52.523Z,1030.44
2017-01-17T09:35:52.496Z,1030.44
2017-01-17T09:36:52.470Z,1030.47
2017-01-17T09:37:52.440Z,1030.52
2017-01-17T09:38:52.420Z,1030.5
2017-01-17T09:39:52.388Z,1030.51
2017-01-17T09:40:52.356Z,1030.48
2017-01-17T09:41:52.327Z,1030.5
2017-01-17T09:42:52.298Z,1030.51
2017-01-17T09:43:52.268Z,1030.46
2017-01-17T09:44:52.239Z,1030.51
2017-01-17T09:45:52.214Z,1030.51
2017-01-17T09:46:52.184Z,1030.48
2017-01-17T09:47:52.163Z,1030.49
2017-01-17T09:48:52.144Z,1030.48
2017-01-17T09:49:52.102Z,1030.48
2017-01-17T09:50:52.073Z,1030.48
2017-01-17T09:51:52.040Z,1030.51
2017-01-17T09:52:52.021Z,1030.52
2017-01-17T09:53:51.985Z,1030.54
2017-01-17T09:54:51.963Z,1030.55
2017-01-17T09:55:51.929Z,1030.56
2017-01-17T09:56:51.898Z,1030.53
2017-01-17T09:57:51.869Z,1030.52
2017-01-17T09:58:51.841Z,1030.5
2017-01-17T09:59:51.818Z,1030.46
2017-01-17T10:00:51.785Z,1030.47
2017-01-17T10:01:51.756Z,1030.49
2017-01-17T10:02:51.731Z,1030.49
2017-01-17T10:03:51.699Z,1030.55
2017-01-17T10:04:51.674Z,1030.52
2017-01-17T10:05:51.644Z,1030.59
2017-01-17T10:06:51.623Z,1030.57
2017-01-17T10:07:51.584Z,1030.54
2017-01-17T10:08:51.554Z,1030.57
2017-01-17T10:09:51.531Z,1030.55
2017-01-17T10:10:51.502Z,1030.58
2017-01-17T10:11:51.471Z,1030.63
2017-01-17T10:12:51.446Z,1030.64
2017-01-17T10:13:51.415Z,1030.66
2017-01-17T10:14:51.390Z,1030.66
2017-01-17T10:15:51.359Z,1030.67
2017-01-17T10:16:51.336Z,1030.68
2017-01-17T10:17:51.303Z,1030.68
2017-01-17T10:18:51.272Z,1030.72
2017-01-17T10:19:51.244Z,1030.71
2017-01-17T10:20:51.226Z,1030.74
2017-01-17T10:21:51.193Z,1030.72
2017-01-17T10:22:51.155Z,1030.78
2017-01-17T10:23:51.145Z,1030.78
2017-01-17T10:24:51.103Z,1030.78
2017-01-17T10:25:51.072Z,1030.78
2017-01-17T10:26:51.043Z,1030.81
2017-01-17T10:27:51.020Z,1030.79
2017-01-17T10:28:50.987Z,1030.86
2017-01-17T10:29:50.962Z,1030.79
2017-01-17T10:30:50.931Z,1030.83
2017-01-17T10:31:50.909Z,1030.81
2017-01-17T10:32:50.876Z,1030.81
2017-01-17T10:33:50.849Z,1030.87
2017-01-17T10:34:50.817Z,1030.86
2017-01-17T10:35:50.787Z,1030.89
2017-01-17T10:36:50.766Z,1030.9
2017-01-17T10:37:50.733Z,1030.88
2017-01-17T10:38:50.705Z,1030.88
2017-01-17T10:39:50.672Z,1030.92
2017-01-17T10:40:50.644Z,1030.9
2017-01-17T10:41:50.654Z,1030.91
2017-01-17T10:42:50.594Z,1030.89
2017-01-17T10:43:50.617Z,1030.89
2017-01-17T10:44:50.533Z,1030.88
2017-01-17T10:45:50.561Z,1030.85
2017-01-17T10:46:50.480Z,1030.87
2017-01-17T10:47:50.500Z,1030.87
2017-01-17T10:48:50.421Z,1030.86
2017-01-17T10:49:50.440Z,1030.91
2017-01-17T10:50:50.370Z,1030.89
2017-01-17T10:51:50.339Z,1030.91
2017-01-17T10:52:50.306Z,1030.92
2017-01-17T10:53:50.288Z,1030.94
2017-01-17T10:54:50.258Z,1030.91
2017-01-17T10:55:50.228Z,1030.91
2017-01-17T10:56:50.195Z,1030.88
2017-01-17T10:57:50.166Z,1030.88
2017-01-17T10:58:50.139Z,1030.9
2017-01-17T10:59:50.116Z,1030.91
2017-01-17T11:00:50.082Z,1030.91
2017-01-17T11:01:50.057Z,1030.91
2017-01-17T11:02:50.028Z,1030.91
2017-01-17T11:03:50.003Z,1030.93
2017-01-17T11:04:49.968Z,1030.9
2017-01-17T11:05:49.941Z,1030.93
2017-01-17T11:06:49.912Z,1030.9
2017-01-17T11:07:49.895Z,1030.89
2017-01-17T11:08:49.853Z,1030.91
2017-01-17T11:09:49.829Z,1030.86
2017-01-17T11:10:49.799Z,1030.91
2017-01-17T11:11:49.769Z,1030.9
2017-01-17T11:12:49.748Z,1030.92
2017-01-17T11:13:49.717Z,1030.89
2017-01-17T11:14:49.688Z,1030.86
2017-01-17T11:15:49.667Z,1030.84
2017-01-17T11:16:49.633Z,1030.88
2017-01-17T11:17:49.601Z,1030.88
2017-01-17T11:18:49.575Z,1030.86
2017-01-17T11:19:49.546Z,1030.85
2017-01-17T11:20:49.520Z,1030.89
2017-01-17T11:21:49.496Z,1030.88
2017-01-17T11:22:49.463Z,1030.93
2017-01-17T11:23:49.435Z,1030.91
2017-01-17T11:24:49.402Z,1030.96
2017-01-17T11:25:49.379Z,1030.96
2017-01-17T11:26:49.348Z,1031
2017-01-17T11:27:49.321Z,1031.02
2017-01-17T11:28:49.296Z,1031.03
2017-01-17T11:29:49.270Z,1031.02
2017-01-17T11:30:49.239Z,1031.05
2017-01-17T11:31:49.208Z,1031.04
2017-01-17T11:32:49.179Z,1031.01
2017-01-17T11:33:49.151Z,1031.04
2017-01-17T11:34:49.126Z,1031.04
2017-01-17T11:35:49.110Z,1031.04
2017-01-17T11:36:49.067Z,1031.08
2017-01-17T11:37:49.046Z,1031.07
2017-01-17T11:38:49.064Z,1031.06
2017-01-17T11:39:48.985Z,1031.09
2017-01-17T11:40:48.956Z,1031.12
2017-01-17T11:41:48.934Z,1031.12
2017-01-17T11:42:48.900Z,1031.12
2017-01-17T11:43:48.873Z,1031.15
2017-01-17T11:44:48.941Z,1031.14
2017-01-17T11:45:48.812Z,1031.19
2017-01-17T11:46:48.893Z,1031.17
2017-01-17T11:47:48.762Z,1031.15
2017-01-17T11:48:48.791Z,1031.12
2017-01-17T11:49:48.708Z,1031.11
2017-01-17T11:50:48.674Z,1031.06
2017-01-17T11:51:48.653Z,1031.06
2017-01-17T11:52:48.617Z,1031.05
2017-01-17T11:53:48.591Z,1031.07
2017-01-17T11:54:48.569Z,1031.09
2017-01-17T11:55:48.529Z,1031.05
2017-01-17T11:56:48.501Z,1031.03
2017-01-17T11:57:48.476Z,1031.06
2017-01-17T11:58:48.456Z,1031.08
2017-01-17T11:59:48.424Z,1031.09
2017-01-17T12:00:48.388Z,1031.08
2017-01-17T12:01:48.366Z,1031.09
2017-01-17T12:02:48.333Z,1031.09
2017-01-17T12:03:48.307Z,1031.13
2017-01-17T12:04:48.276Z,1031.08
2017-01-17T12:05:48.250Z,1030.99
2017-01-17T12:06:48.220Z,1030.99
2017-01-17T12:07:48.193Z,1031.03